Time;durP1;ratioP1;P1;durP2;ratioP2;P2;SDS_P1;SDS_P2;PMS_P1;PMS_P2;Temp;Humidity;BMP_temperature;BMP_pressure;BME280_temperature;BME280_humidity;BME280_pressure;Samples;Min_cycle;Max_cycle;Signal;HPM_P1;HPM_P2
2021/04/22 00:02:32;;;;;;;10.50;6.65;;;11.60;99.90;;;;;;5050335;28;20044;-48
2021/04/22 00:05:39;;;;;;;9.48;7.32;;;11.60;99.90;;;;;;5049931;28;20040;-46
2021/04/22 00:08:44;;;;;;;8.70;6.20;;;11.40;99.90;;;;;;5049310;28;20044;-47
2021/04/22 00:11:49;;;;;;;11.32;6.70;;;11.20;99.90;;;;;;5050216;28;20531;-47
2021/04/22 00:14:53;;;;;;;8.15;6.43;;;11.20;99.90;;;;;;5050379;28;20411;-47
2021/04/22 00:17:59;;;;;;;8.05;5.47;;;11.20;99.90;;;;;;5050077;28;20041;-47
2021/04/22 00:21:04;;;;;;;9.48;6.25;;;11.20;99.90;;;;;;5049897;28;20041;-47
2021/04/22 00:24:09;;;;;;;8.50;5.53;;;11.20;99.90;;;;;;5029176;28;20044;-47
2021/04/22 00:27:13;;;;;;;10.85;5.18;;;11.20;99.90;;;;;;5029280;28;20040;-49
2021/04/22 00:30:18;;;;;;;7.57;5.03;;;11.30;99.90;;;;;;5029711;28;20048;-47
2021/04/22 00:33:23;;;;;;;9.85;6.80;;;11.30;99.90;;;;;;5030047;28;20411;-49
2021/04/22 00:36:27;;;;;;;13.43;7.88;;;11.30;99.90;;;;;;5028980;28;20037;-47
2021/04/22 00:39:37;;;;;;;12.00;8.82;;;10.60;99.90;;;;;;5030009;28;20040;-47
2021/04/22 00:42:42;;;;;;;10.15;7.47;;;10.50;99.90;;;;;;5029883;28;20052;-47
2021/04/22 00:45:47;;;;;;;10.68;8.05;;;10.60;99.90;;;;;;5029420;28;20048;-47
2021/04/22 00:48:51;;;;;;;8.35;6.82;;;10.60;99.90;;;;;;5030006;28;20041;-47
2021/04/22 00:51:55;;;;;;;11.55;7.65;;;10.70;99.90;;;;;;5029180;28;20044;-47
2021/04/22 00:54:59;;;;;;;9.63;8.18;;;10.70;99.90;;;;;;5029158;28;20048;-47
2021/04/22 00:58:05;;;;;;;9.75;7.40;;;10.70;99.90;;;;;;5029657;28;20056;-47
2021/04/22 01:01:09;;;;;;;8.73;6.50;;;10.70;99.90;;;;;;5029875;28;20465;-47
2021/04/22 01:04:14;;;;;;;9.55;7.28;;;10.80;99.90;;;;;;5029560;28;20048;-48
2021/04/22 01:07:18;;;;;;;10.13;6.85;;;10.80;99.90;;;;;;5043543;28;20052;-47
2021/04/22 01:10:23;;;;;;;10.70;7.18;;;10.90;99.90;;;;;;5049555;28;20067;-47
2021/04/22 01:13:27;;;;;;;9.18;7.15;;;10.90;99.90;;;;;;5049274;28;20052;-47
2021/04/22 01:16:31;;;;;;;9.50;7.13;;;10.90;99.90;;;;;;5048843;28;20048;-47
2021/04/22 01:19:36;;;;;;;8.50;6.75;;;10.90;99.90;;;;;;5049607;28;20044;-46
2021/04/22 01:22:40;;;;;;;9.43;6.95;;;10.90;99.90;;;;;;5048944;28;20294;-47
2021/04/22 01:25:47;;;;;;;10.57;7.72;;;11.00;99.90;;;;;;5048744;28;20044;-48
2021/04/22 01:28:51;;;;;;;9.60;6.10;;;11.00;99.90;;;;;;5049277;28;20040;-47
2021/04/22 01:31:55;;;;;;;8.55;6.57;;;11.00;99.90;;;;;;5048981;28;20411;-47
2021/04/22 01:35:00;;;;;;;10.43;7.13;;;11.00;99.90;;;;;;5049140;28;20403;-47
2021/04/22 01:38:06;;;;;;;9.55;7.32;;;10.90;99.90;;;;;;5052611;28;20043;-48
2021/04/22 01:41:10;;;;;;;12.00;7.90;;;10.80;99.90;;;;;;5052758;28;20052;-47
2021/04/22 01:44:15;;;;;;;10.23;7.45;;;10.70;99.90;;;;;;5053010;28;20048;-47
2021/04/22 01:47:19;;;;;;;11.23;8.05;;;10.60;99.90;;;;;;5052319;28;20048;-49
2021/04/22 01:50:26;;;;;;;9.45;7.45;;;10.50;99.90;;;;;;5053140;28;20060;-46
2021/04/22 01:53:30;;;;;;;12.93;8.65;;;10.40;99.90;;;;;;5052900;28;20052;-48
2021/04/22 01:56:34;;;;;;;14.07;9.02;;;10.40;99.90;;;;;;5052072;28;20399;-47
2021/04/22 01:59:39;;;;;;;11.98;8.55;;;10.30;99.90;;;;;;5052814;28;20059;-48
2021/04/22 02:02:43;;;;;;;13.50;8.93;;;10.20;99.90;;;;;;5052682;28;20048;-46
2021/04/22 02:05:47;;;;;;;12.32;8.57;;;10.20;99.90;;;;;;5052580;28;20063;-47
2021/04/22 02:08:51;;;;;;;13.00;7.57;;;10.20;99.90;;;;;;5052195;28;20044;-46
2021/04/22 02:11:56;;;;;;;11.43;6.82;;;10.20;99.90;;;;;;5052419;28;20048;-48
2021/04/22 02:15:00;;;;;;;9.68;7.05;;;10.20;99.90;;;;;;5052389;28;20063;-47
2021/04/22 02:18:06;;;;;;;11.05;7.05;;;10.30;99.90;;;;;;5051897;28;20867;-46
2021/04/22 02:21:10;;;;;;;11.55;7.22;;;10.30;99.90;;;;;;5052443;28;20056;-47
2021/04/22 02:24:14;;;;;;;8.45;7.00;;;10.20;99.90;;;;;;5052211;28;20043;-47
2021/04/22 02:27:18;;;;;;;8.60;6.43;;;10.30;99.90;;;;;;5051364;28;20044;-46
2021/04/22 02:30:29;;;;;;;10.05;6.80;;;10.30;99.90;;;;;;5052458;28;20522;-47
2021/04/22 02:33:33;;;;;;;10.27;7.13;;;10.30;99.90;;;;;;5052322;28;20048;-48
2021/04/22 02:36:37;;;;;;;10.82;7.50;;;10.30;99.90;;;;;;5051953;28;20048;-47
2021/04/22 02:39:41;;;;;;;11.55;7.43;;;10.30;99.90;;;;;;5052240;28;20415;-49
2021/04/22 02:42:46;;;;;;;10.55;7.65;;;10.30;99.90;;;;;;5051960;28;20051;-50
2021/04/22 02:45:54;;;;;;;8.75;6.90;;;10.30;99.90;;;;;;5051556;28;20043;-52
2021/04/22 02:48:58;;;;;;;8.52;6.72;;;10.40;99.90;;;;;;5050975;28;20514;-53
2021/04/22 02:52:03;;;;;;;9.10;6.63;;;10.40;99.90;;;;;;5050929;28;20048;-51
2021/04/22 02:55:08;;;;;;;9.45;6.47;;;10.40;99.90;;;;;;5050832;28;20056;-50
2021/04/22 02:58:13;;;;;;;13.40;7.22;;;10.30;99.90;;;;;;5051172;28;20431;-53
2021/04/22 03:01:17;;;;;;;11.70;7.90;;;10.30;99.90;;;;;;5051687;28;20404;-53
2021/04/22 03:04:22;;;;;;;11.40;7.82;;;10.40;99.90;;;;;;5051289;28;20048;-53
2021/04/22 03:07:36;;;;;;;9.43;6.95;;;10.30;99.90;;;;;;5050822;28;20047;-54
2021/04/22 03:10:41;;;;;;;10.10;7.03;;;10.30;99.90;;;;;;5051243;28;20036;-53
2021/04/22 03:13:45;;;;;;;8.30;6.78;;;10.30;99.90;;;;;;5051211;28;20047;-52
2021/04/22 03:16:49;;;;;;;9.23;6.45;;;10.20;99.90;;;;;;5051199;28;20052;-52
2021/04/22 03:19:53;;;;;;;10.23;6.85;;;10.20;99.90;;;;;;5051204;28;20047;-53
2021/04/22 03:22:58;;;;;;;8.70;7.10;;;10.20;99.90;;;;;;5050948;28;20546;-48
2021/04/22 03:26:02;;;;;;;8.35;5.72;;;10.10;99.90;;;;;;5050840;28;20527;-47
2021/04/22 03:29:07;;;;;;;7.25;5.85;;;10.10;99.90;;;;;;5050923;28;20051;-49
2021/04/22 03:32:11;;;;;;;9.50;5.78;;;10.10;99.90;;;;;;5050981;28;20064;-51
2021/04/22 03:35:15;;;;;;;7.90;5.60;;;10.00;99.90;;;;;;5050698;28;20056;-49
2021/04/22 03:38:19;;;;;;;8.50;6.15;;;10.00;99.90;;;;;;5050407;28;20052;-48
2021/04/22 03:41:23;;;;;;;8.50;6.47;;;9.90;99.90;;;;;;5050158;28;20044;-53
2021/04/22 03:44:28;;;;;;;9.23;6.38;;;10.00;99.90;;;;;;5051032;28;20384;-52
2021/04/22 03:47:32;;;;;;;9.80;6.10;;;10.00;99.90;;;;;;5051068;28;20510;-47
2021/04/22 03:50:36;;;;;;;9.43;6.45;;;10.00;99.90;;;;;;5050667;28;20060;-52
2021/04/22 03:53:40;;;;;;;8.20;5.82;;;10.10;99.90;;;;;;5051209;28;20048;-47
2021/04/22 03:56:45;;;;;;;8.98;6.85;;;10.10;99.90;;;;;;5050670;28;20048;-51
2021/04/22 03:59:49;;;;;;;9.48;7.53;;;9.90;99.90;;;;;;5049778;28;20056;-52
2021/04/22 04:02:53;;;;;;;11.52;8.00;;;9.70;99.90;;;;;;5051069;28;20049;-51
2021/04/22 04:05:58;;;;;;;15.27;8.60;;;9.60;99.90;;;;;;5050793;28;20048;-52
2021/04/22 04:09:03;;;;;;;10.43;8.02;;;9.70;99.90;;;;;;5050414;28;20048;-48
2021/04/22 04:12:08;;;;;;;9.30;7.30;;;9.70;99.90;;;;;;5050571;28;20044;-47
2021/04/22 04:15:13;;;;;;;12.38;8.00;;;9.80;99.90;;;;;;5050468;28;20037;-52
2021/04/22 04:18:21;;;;;;;10.18;8.35;;;9.80;99.90;;;;;;5050085;28;20044;-47
2021/04/22 04:21:25;;;;;;;14.98;8.75;;;9.90;99.90;;;;;;5050024;28;20047;-48
2021/04/22 04:24:29;;;;;;;11.90;8.55;;;9.90;99.90;;;;;;5050351;28;20060;-48
2021/04/22 04:27:33;;;;;;;10.63;7.50;;;9.90;99.90;;;;;;5050357;28;20047;-47
2021/04/22 04:30:37;;;;;;;10.25;7.30;;;9.90;99.90;;;;;;5049850;28;20056;-49
2021/04/22 04:33:41;;;;;;;10.70;8.20;;;9.90;99.90;;;;;;5050315;28;20052;-51
2021/04/22 04:36:46;;;;;;;10.43;7.90;;;9.90;99.90;;;;;;5049764;28;20617;-48
2021/04/22 04:39:51;;;;;;;14.68;8.43;;;9.80;99.90;;;;;;5049844;28;20056;-47
2021/04/22 04:42:54;;;;;;;11.60;8.63;;;9.90;99.90;;;;;;5041806;28;20511;-48
2021/04/22 04:45:58;;;;;;;11.45;8.45;;;9.90;99.90;;;;;;5029530;28;20041;-50
2021/04/22 04:49:03;;;;;;;12.95;8.80;;;9.90;99.90;;;;;;5029278;28;20438;-49
2021/04/22 04:52:08;;;;;;;13.98;10.68;;;9.90;99.90;;;;;;5030032;28;20523;-47
2021/04/22 04:55:13;;;;;;;12.68;10.05;;;9.90;99.90;;;;;;5029928;28;20052;-47
2021/04/22 04:58:17;;;;;;;13.23;10.30;;;9.90;99.90;;;;;;5029484;28;20056;-47
2021/04/22 05:01:22;;;;;;;11.88;9.95;;;10.00;99.90;;;;;;5030160;28;20057;-52
2021/04/22 05:04:26;;;;;;;12.85;8.60;;;10.00;99.90;;;;;;5029909;28;20060;-48
2021/04/22 05:07:30;;;;;;;11.15;8.55;;;10.00;99.90;;;;;;5031909;28;20400;-51
2021/04/22 05:10:34;;;;;;;11.73;8.73;;;10.10;99.90;;;;;;5028969;28;20056;-47
2021/04/22 05:13:38;;;;;;;11.63;8.20;;;10.20;99.90;;;;;;5029371;28;20060;-47
2021/04/22 05:16:41;;;;;;;11.55;8.60;;;10.20;99.90;;;;;;5029522;28;20508;-47
2021/04/22 05:19:45;;;;;;;10.98;8.32;;;10.30;99.90;;;;;;5028817;28;20052;-48
2021/04/22 05:22:50;;;;;;;8.32;6.72;;;10.40;99.90;;;;;;5029512;28;20511;-49
2021/04/22 05:25:54;;;;;;;9.82;7.55;;;10.50;99.90;;;;;;5029481;28;20044;-46
2021/04/22 05:28:59;;;;;;;8.23;6.95;;;10.60;99.90;;;;;;5029584;28;20447;-53
2021/04/22 05:32:04;;;;;;;11.45;7.35;;;10.60;99.90;;;;;;5031366;28;20526;-46
2021/04/22 05:35:09;;;;;;;13.52;7.38;;;10.70;99.90;;;;;;5038771;28;20067;-48
2021/04/22 05:38:15;;;;;;;15.85;9.18;;;10.80;99.90;;;;;;5049472;28;20067;-47
2021/04/22 05:41:19;;;;;;;11.63;7.05;;;10.80;99.90;;;;;;5039012;28;20056;-48
2021/04/22 05:44:23;;;;;;;10.02;7.32;;;10.90;99.90;;;;;;5035933;28;20044;-51
2021/04/22 05:47:28;;;;;;;10.13;6.93;;;10.90;99.90;;;;;;5028298;28;20056;-49
2021/04/22 05:50:33;;;;;;;11.10;8.38;;;11.00;99.90;;;;;;5037368;28;20044;-47
2021/04/22 05:53:38;;;;;;;9.40;6.97;;;11.00;99.90;;;;;;5028193;28;20044;-48
2021/04/22 05:56:42;;;;;;;9.15;6.82;;;11.10;99.90;;;;;;5028339;28;20060;-52
2021/04/22 05:59:47;;;;;;;8.93;5.85;;;11.20;99.90;;;;;;5028763;28;20052;-49
2021/04/22 06:02:50;;;;;;;11.68;7.13;;;11.30;99.90;;;;;;5034064;28;20048;-48
2021/04/22 06:05:54;;;;;;;8.77;7.28;;;11.50;99.90;;;;;;5036572;28;20044;-50
2021/04/22 06:08:59;;;;;;;11.85;7.47;;;11.50;99.90;;;;;;5032384;28;20048;-50
2021/04/22 06:12:05;;;;;;;8.68;7.05;;;11.50;99.90;;;;;;5047107;28;20044;-47
2021/04/22 06:15:10;;;;;;;9.55;6.75;;;11.50;99.90;;;;;;5047786;28;20383;-47
2021/04/22 06:18:14;;;;;;;9.93;7.20;;;11.60;99.90;;;;;;5048712;28;20423;-47
2021/04/22 06:21:18;;;;;;;8.30;6.78;;;11.80;99.90;;;;;;5048102;28;20137;-50
2021/04/22 06:24:22;;;;;;;9.38;6.95;;;11.90;99.90;;;;;;5051317;28;20415;-53
2021/04/22 06:27:27;;;;;;;8.48;7.05;;;12.00;99.90;;;;;;5051809;28;20056;-47
2021/04/22 06:30:31;;;;;;;11.95;8.05;;;12.00;99.90;;;;;;5031648;28;20060;-48
2021/04/22 06:33:35;;;;;;;10.15;8.00;;;12.00;99.90;;;;;;5031391;28;20044;-46
2021/04/22 06:36:41;;;;;;;11.63;8.02;;;11.80;99.90;;;;;;5031378;28;20044;-48
2021/04/22 06:39:45;;;;;;;13.90;8.48;;;11.70;99.90;;;;;;5031631;28;20412;-49
2021/04/22 06:42:51;;;;;;;12.02;8.25;;;11.70;99.90;;;;;;5039454;28;20044;-47
2021/04/22 06:45:56;;;;;;;15.00;8.52;;;11.70;99.90;;;;;;5030714;28;20415;-47
2021/04/22 06:49:00;;;;;;;11.02;8.63;;;11.70;99.90;;;;;;5032027;28;20037;-47
2021/04/22 06:52:05;;;;;;;9.38;7.20;;;11.70;99.90;;;;;;5035670;28;20045;-47
2021/04/22 06:55:18;;;;;;;11.85;8.45;;;11.80;99.90;;;;;;5048031;28;20052;-48
2021/04/22 06:58:22;;;;;;;12.07;8.77;;;11.90;99.90;;;;;;5051550;28;20048;-47
2021/04/22 07:01:27;;;;;;;11.20;8.15;;;12.00;99.90;;;;;;5045099;28;20058;-48
2021/04/22 07:04:31;;;;;;;13.02;8.88;;;12.10;99.90;;;;;;5030911;28;20045;-47
2021/04/22 07:07:36;;;;;;;10.73;8.95;;;12.00;99.90;;;;;;5048497;28;20063;-47
2021/04/22 07:10:42;;;;;;;12.77;9.57;;;12.00;99.90;;;;;;5050974;28;20415;-48
2021/04/22 07:13:46;;;;;;;13.73;10.05;;;12.00;99.90;;;;;;5051470;28;20060;-48
2021/04/22 07:16:50;;;;;;;16.25;11.15;;;12.00;99.90;;;;;;5050876;28;20044;-47
2021/04/22 07:19:55;;;;;;;14.30;10.82;;;12.00;99.90;;;;;;5050335;28;20058;-48
2021/04/22 07:23:00;;;;;;;15.35;11.50;;;11.90;99.90;;;;;;5050895;28;20048;-48
2021/04/22 07:26:04;;;;;;;13.95;10.25;;;11.90;99.90;;;;;;5043157;28;20052;-47
2021/04/22 07:29:09;;;;;;;14.18;10.90;;;12.00;99.90;;;;;;5032231;28;20546;-48
2021/04/22 07:32:13;;;;;;;15.73;11.27;;;11.90;99.90;;;;;;5039129;28;20395;-47
2021/04/22 07:35:19;;;;;;;17.70;11.95;;;11.90;99.90;;;;;;5038350;28;20056;-47
2021/04/22 07:38:23;;;;;;;20.35;12.52;;;12.00;99.90;;;;;;5034857;28;20045;-48
2021/04/22 07:41:27;;;;;;;19.58;13.45;;;12.00;99.90;;;;;;5030086;28;20044;-48
2021/04/22 07:44:31;;;;;;;18.50;14.38;;;12.30;99.90;;;;;;5031719;28;20518;-48
2021/04/22 07:47:36;;;;;;;16.85;13.00;;;12.40;99.90;;;;;;5030512;28;20048;-47
2021/04/22 07:50:41;;;;;;;16.35;13.05;;;12.50;99.90;;;;;;5030730;28;20044;-48
2021/04/22 07:53:45;;;;;;;16.33;11.63;;;12.60;99.90;;;;;;5030377;28;20041;-49
2021/04/22 07:56:50;;;;;;;13.70;10.75;;;12.80;99.90;;;;;;5031544;28;20036;-47
2021/04/22 07:59:54;;;;;;;14.32;11.20;;;13.00;99.90;;;;;;5030923;28;20048;-47
2021/04/22 08:03:01;;;;;;;14.55;10.60;;;13.20;99.90;;;;;;5033744;28;20048;-48
2021/04/22 08:06:05;;;;;;;12.93;10.05;;;13.50;99.90;;;;;;5030002;28;20523;-49
2021/04/22 08:09:09;;;;;;;12.63;9.88;;;13.80;99.90;;;;;;5030770;28;20044;-48
2021/04/22 08:12:14;;;;;;;12.02;9.45;;;14.30;99.90;;;;;;5029639;28;20044;-50
2021/04/22 08:15:18;;;;;;;11.18;8.60;;;15.10;99.90;;;;;;5029891;28;20052;-47
2021/04/22 08:18:27;;;;;;;12.35;9.65;;;15.80;99.90;;;;;;5030059;28;20084;-48
2021/04/22 08:21:31;;;;;;;9.93;7.97;;;16.10;99.90;;;;;;5028222;28;20048;-48
2021/04/22 08:24:35;;;;;;;8.85;7.03;;;16.40;99.90;;;;;;5029714;28;20056;-48
2021/04/22 08:27:39;;;;;;;8.20;6.43;;;16.80;99.90;;;;;;5030137;28;20615;-47
2021/04/22 08:30:50;;;;;;;8.20;5.78;;;16.90;99.90;;;;;;5049558;28;20511;-48
2021/04/22 08:33:58;;;;;;;6.95;5.95;;;17.40;99.90;;;;;;5028772;28;20411;-47
2021/04/22 08:37:02;;;;;;;6.78;5.47;;;17.70;99.90;;;;;;5031909;28;20104;-47
2021/04/22 08:40:10;;;;;;;7.78;5.95;;;18.10;99.90;;;;;;5031313;28;20097;-48
2021/04/22 08:43:15;;;;;;;7.82;6.30;;;18.30;99.90;;;;;;5028379;28;20286;-49
2021/04/22 08:46:21;;;;;;;7.22;6.47;;;18.40;99.90;;;;;;5043452;28;20047;-49
2021/04/22 08:49:25;;;;;;;8.13;6.45;;;18.60;99.90;;;;;;5041426;28;20040;-47
2021/04/22 08:52:31;;;;;;;8.15;6.80;;;19.10;99.90;;;;;;5035881;28;20043;-47
2021/04/22 08:55:36;;;;;;;7.80;6.45;;;19.70;99.90;;;;;;5028319;28;20032;-47
2021/04/22 08:58:41;;;;;;;7.40;6.35;;;20.30;99.90;;;;;;5028342;28;20056;-48
2021/04/22 09:01:45;;;;;;;9.02;6.53;;;21.00;99.90;;;;;;5033705;28;20048;-48
2021/04/22 09:04:49;;;;;;;8.88;6.65;;;21.80;99.90;;;;;;5035017;28;20052;-48
2021/04/22 09:07:53;;;;;;;6.38;5.68;;;22.90;99.90;;;;;;5036519;28;20407;-49
2021/04/22 09:10:57;;;;;;;5.93;4.63;;;24.40;99.90;;;;;;5034535;28;20040;-48
2021/04/22 09:14:14;;;;;;;5.60;4.72;;;26.40;99.90;;;;;;5033537;28;20099;-49
2021/04/22 09:17:20;;;;;;;6.45;4.70;;;27.80;97.90;;;;;;5031719;28;20048;-48
2021/04/22 09:20:37;;;;;;;5.15;4.28;;;28.20;94.90;;;;;;5040185;28;20479;-49
2021/04/22 09:23:53;;;;;;;8.52;7.35;;;28.70;94.10;;;;;;5035597;28;20036;-50
2021/04/22 09:27:05;;;;;;;5.57;5.07;;;30.30;90.40;;;;;;5035157;28;20051;-50
2021/04/22 09:30:14;;;;;;;5.35;4.20;;;32.10;90.10;;;;;;5035749;28;20052;-52
2021/04/22 09:33:25;;;;;;;5.10;4.60;;;33.20;83.40;;;;;;5041259;28;20404;-49
2021/04/22 09:36:41;;;;;;;5.20;4.68;;;32.90;78.50;;;;;;5037690;28;20040;-52
2021/04/22 09:39:46;;;;;;;4.57;3.92;;;32.30;77.70;;;;;;5040264;28;20055;-48
2021/04/22 09:42:52;;;;;;;5.20;4.40;;;31.60;77.60;;;;;;5043936;28;20055;-49
2021/04/22 09:45:56;;;;;;;5.18;4.68;;;31.40;77.40;;;;;;5028574;28;20048;-48
2021/04/22 09:49:08;;;;;;;5.85;4.85;;;30.60;76.80;;;;;;5029259;28;20049;-48
2021/04/22 09:52:16;;;;;;;4.63;3.85;;;30.50;78.60;;;;;;5028678;28;20048;-48
2021/04/22 09:55:24;;;;;;;5.80;3.60;;;31.70;77.60;;;;;;5028820;28;20072;-49
2021/04/22 09:58:30;;;;;;;4.32;3.63;;;32.70;76.90;;;;;;5029443;28;20056;-50
2021/04/22 10:01:34;;;;;;;4.38;3.42;;;33.70;73.90;;;;;;5032775;28;20044;-49
2021/04/22 10:04:45;;;;;;;5.82;3.88;;;32.60;72.80;;;;;;5031316;28;20057;-51
2021/04/22 10:07:49;;;;;;;4.25;3.85;;;29.10;75.40;;;;;;5032319;28;20044;-50
2021/04/22 10:11:06;;;;;;;5.40;3.90;;;27.20;78.60;;;;;;5032632;28;20048;-51
2021/04/22 10:14:11;;;;;;;6.30;3.38;;;25.80;84.30;;;;;;5031846;28;20048;-49
2021/04/22 10:17:24;;;;;;;4.97;3.90;;;25.90;84.60;;;;;;5031937;28;20057;-51
2021/04/22 10:20:32;;;;;;;5.65;3.83;;;27.30;84.20;;;;;;5032193;28;20044;-50
2021/04/22 10:23:41;;;;;;;6.68;3.72;;;28.60;79.40;;;;;;5031292;28;20041;-52
2021/04/22 10:27:01;;;;;;;6.72;4.28;;;26.40;80.60;;;;;;5031623;28;20423;-48
2021/04/22 10:30:10;;;;;;;6.07;4.07;;;27.00;83.60;;;;;;5032164;28;20053;-52
2021/04/22 10:33:15;;;;;;;6.95;4.03;;;27.00;80.40;;;;;;5031788;28;20143;-52
2021/04/22 10:36:22;;;;;;;5.95;3.80;;;26.00;82.00;;;;;;5031923;28;20045;-52
2021/04/22 10:39:27;;;;;;;7.55;4.45;;;25.00;82.10;;;;;;5032050;28;20127;-49
2021/04/22 10:42:33;;;;;;;7.45;4.50;;;23.80;88.10;;;;;;5030599;28;20041;-48
2021/04/22 10:45:38;;;;;;;5.57;4.20;;;23.00;90.10;;;;;;5031301;28;20048;-52
2021/04/22 10:48:42;;;;;;;8.55;4.28;;;22.30;90.10;;;;;;5049871;28;20052;-51
2021/04/22 10:51:47;;;;;;;4.72;3.55;;;21.40;91.20;;;;;;5043200;28;20404;-52
2021/04/22 10:54:52;;;;;;;5.05;3.70;;;21.90;90.80;;;;;;5037340;28;20069;-52
2021/04/22 10:58:18;;;;;;;5.38;3.25;;;22.70;90.50;;;;;;5051465;28;20140;-50
2021/04/22 11:01:38;;;;;;;3.78;2.90;;;26.00;82.60;;;;;;5048020;28;20052;-49
2021/04/22 11:04:42;;;;;;;3.53;2.60;;;28.40;82.40;;;;;;5031524;28;20049;-50
2021/04/22 11:08:13;;;;;;;4.03;2.10;;;30.60;74.60;;;;;;5037714;28;20036;-51
2021/04/22 11:11:21;;;;;;;3.00;2.33;;;30.20;73.00;;;;;;5034433;28;20328;-48
2021/04/22 11:14:43;;;;;;;4.15;2.33;;;28.30;73.60;;;;;;5036145;28;20282;-54
2021/04/22 11:17:47;;;;;;;4.70;3.55;;;26.50;74.80;;;;;;5030642;28;20048;-50
2021/04/22 11:20:51;;;;;;;4.95;2.95;;;25.40;77.80;;;;;;5042680;28;20048;-50
2021/04/22 11:24:02;;;;;;;5.00;3.00;;;24.40;79.40;;;;;;5043651;28;20050;-49
2021/04/22 11:27:10;;;;;;;4.25;3.47;;;23.70;79.60;;;;;;5042103;28;20052;-52
2021/04/22 11:30:27;;;;;;;4.18;3.30;;;23.10;83.10;;;;;;5045471;28;20040;-49
2021/04/22 11:33:31;;;;;;;5.43;3.55;;;22.50;83.40;;;;;;5049275;28;20040;-49
2021/04/22 11:36:49;;;;;;;5.22;3.60;;;22.30;85.60;;;;;;5050525;28;20048;-51
2021/04/22 11:39:55;;;;;;;5.72;4.03;;;21.90;83.70;;;;;;5050394;28;20051;-49
2021/04/22 11:42:59;;;;;;;6.57;4.18;;;21.70;86.00;;;;;;5049213;28;20044;-53
2021/04/22 11:46:03;;;;;;;7.55;4.15;;;21.40;85.10;;;;;;5045215;28;20048;-53
2021/04/22 11:49:10;;;;;;;5.15;3.75;;;20.80;87.20;;;;;;5043050;28;20033;-53
2021/04/22 11:52:19;;;;;;;5.22;4.22;;;20.70;89.20;;;;;;5055237;28;20047;-49
2021/04/22 11:55:30;;;;;;;5.00;4.10;;;20.50;90.00;;;;;;5053167;28;20059;-47
2021/04/22 11:58:38;;;;;;;5.28;3.85;;;20.30;90.30;;;;;;5053228;28;20063;-49
2021/04/22 12:02:12;;;;;;;7.32;4.32;;;20.60;90.80;;;;;;5051939;28;20072;-48
2021/04/22 12:05:18;;;;;;;5.13;3.75;;;20.80;90.80;;;;;;5043592;28;20052;-51
2021/04/22 12:08:32;;;;;;;6.32;3.78;;;20.70;90.10;;;;;;5045161;28;20044;-52
2021/04/22 12:11:38;;;;;;;5.90;3.75;;;20.40;88.70;;;;;;5047637;28;20040;-50
2021/04/22 12:14:45;;;;;;;11.98;8.23;;;20.30;90.10;;;;;;5048193;28;20044;-51
2021/04/22 12:17:50;;;;;;;5.78;3.53;;;20.50;90.30;;;;;;5029645;28;20052;-49
2021/04/22 12:21:05;;;;;;;5.85;3.95;;;20.30;89.50;;;;;;5029483;28;20048;-54
2021/04/22 12:24:09;;;;;;;4.57;3.55;;;20.30;89.50;;;;;;5031949;28;20056;-53
2021/04/22 12:27:24;;;;;;;5.20;4.18;;;19.80;90.00;;;;;;5034999;28;20522;-47
2021/04/22 12:30:39;;;;;;;5.15;3.35;;;20.10;91.10;;;;;;5039524;28;20040;-48
2021/04/22 12:33:44;;;;;;;4.85;3.90;;;20.80;90.00;;;;;;5038323;28;20045;-49
2021/04/22 12:37:21;;;;;;;4.35;3.20;;;21.20;88.00;;;;;;5040914;28;20056;-52
2021/04/22 12:40:25;;;;;;;6.18;3.47;;;20.90;88.40;;;;;;5040519;28;20043;-52
2021/04/22 12:43:31;;;;;;;4.65;3.55;;;19.40;87.70;;;;;;5039116;28;20515;-47
2021/04/22 12:46:36;;;;;;;13.70;8.80;;;20.20;88.50;;;;;;5038427;28;20048;-48
2021/04/22 12:49:50;;;;;;;6.85;3.30;;;21.40;87.70;;;;;;5035295;28;20518;-48
2021/04/22 12:53:07;;;;;;;21.85;17.25;;;21.50;81.80;;;;;;5039859;28;20048;-49
2021/04/22 12:56:14;;;;;;;6.45;4.25;;;21.20;82.30;;;;;;5039193;28;20040;-47
2021/04/22 12:59:20;;;;;;;4.72;3.53;;;20.40;84.10;;;;;;5035675;28;20045;-49
2021/04/22 13:02:24;;;;;;;4.93;3.85;;;19.60;85.00;;;;;;5035407;28;20052;-47
2021/04/22 13:05:29;;;;;;;4.15;3.33;;;19.10;86.30;;;;;;5037088;28;20040;-52
2021/04/22 13:08:36;;;;;;;5.63;4.00;;;19.20;88.50;;;;;;5040951;28;20044;-47
2021/04/22 13:11:40;;;;;;;8.18;4.45;;;19.40;87.60;;;;;;5031717;28;20048;-48
2021/04/22 13:14:46;;;;;;;5.07;3.65;;;19.70;87.50;;;;;;5043724;28;20051;-49
2021/04/22 13:17:50;;;;;;;5.28;3.50;;;20.10;87.70;;;;;;5050802;28;20048;-53
2021/04/22 13:20:55;;;;;;;6.32;3.40;;;20.50;87.00;;;;;;5047414;28;20056;-51
2021/04/22 13:23:59;;;;;;;6.57;3.42;;;21.00;85.00;;;;;;5046495;28;20461;-53
2021/04/22 13:27:07;;;;;;;4.50;3.40;;;21.90;84.50;;;;;;5044895;28;21200;-49
2021/04/22 13:30:11;;;;;;;5.60;3.70;;;22.70;82.40;;;;;;5047914;28;20938;-53
2021/04/22 13:33:26;;;;;;;5.68;3.78;;;21.90;82.20;;;;;;5049057;28;20048;-47
2021/04/22 13:36:47;;;;;;;6.85;3.90;;;20.60;81.70;;;;;;5051155;28;20047;-53
2021/04/22 13:39:54;;;;;;;4.88;3.85;;;20.40;86.00;;;;;;5054771;28;20612;-48
2021/04/22 13:42:59;;;;;;;4.18;3.60;;;20.40;86.10;;;;;;5057944;28;20060;-51
2021/04/22 13:46:03;;;;;;;5.47;3.30;;;20.20;85.50;;;;;;5040264;28;20039;-48
2021/04/22 13:49:12;;;;;;;4.50;3.33;;;20.40;85.90;;;;;;5046435;28;20411;-48
2021/04/22 13:52:20;;;;;;;4.85;2.92;;;21.30;84.10;;;;;;5031915;28;20045;-48
2021/04/22 13:55:24;;;;;;;4.38;3.35;;;22.00;83.00;;;;;;5033163;28;20064;-47
2021/04/22 13:58:38;;;;;;;4.88;3.05;;;22.10;81.20;;;;;;5044457;28;20055;-53
2021/04/22 14:01:44;;;;;;;3.85;3.08;;;21.40;82.60;;;;;;5031900;28;20047;-52
2021/04/22 14:04:57;;;;;;;4.13;3.15;;;20.80;82.20;;;;;;5032388;28;20067;-53
2021/04/22 14:08:02;;;;;;;3.78;2.95;;;20.10;83.40;;;;;;5035511;28;20056;-52
2021/04/22 14:11:17;;;;;;;6.22;3.40;;;19.60;83.70;;;;;;5041843;28;20041;-47
2021/04/22 14:14:24;;;;;;;4.88;3.42;;;19.00;82.60;;;;;;5039131;28;20510;-47
2021/04/22 14:17:28;;;;;;;4.53;3.38;;;18.50;85.30;;;;;;5031839;28;20057;-49
2021/04/22 14:20:33;;;;;;;4.22;3.10;;;18.20;85.20;;;;;;5035984;28;20040;-50
2021/04/22 14:23:39;;;;;;;5.88;3.30;;;18.20;87.50;;;;;;5038771;28;20044;-49
2021/04/22 14:26:46;;;;;;;5.32;3.53;;;18.30;85.70;;;;;;5042679;28;20193;-51
2021/04/22 14:29:51;;;;;;;5.22;3.53;;;18.40;85.90;;;;;;5043382;28;20044;-48
2021/04/22 14:32:55;;;;;;;5.15;2.95;;;18.20;88.00;;;;;;5042591;28;20420;-52
2021/04/22 14:36:00;;;;;;;9.45;4.05;;;18.30;87.10;;;;;;5037506;28;20059;-50
2021/04/22 14:39:07;;;;;;;5.78;3.45;;;18.20;86.70;;;;;;5042534;28;20071;-52
2021/04/22 14:42:11;;;;;;;5.63;3.67;;;18.00;87.40;;;;;;5036508;28;20095;-54
2021/04/22 14:45:16;;;;;;;5.90;3.90;;;17.80;88.80;;;;;;5029629;28;20037;-50
2021/04/22 14:48:21;;;;;;;5.18;4.40;;;17.50;86.70;;;;;;5038211;28;20056;-49
2021/04/22 14:51:25;;;;;;;6.07;3.78;;;17.30;87.20;;;;;;5033800;28;20051;-52
2021/04/22 14:54:30;;;;;;;4.03;3.28;;;17.20;86.10;;;;;;5035211;28;20037;-48
2021/04/22 14:57:35;;;;;;;6.53;3.53;;;17.10;84.70;;;;;;5038587;28;20054;-54
2021/04/22 15:00:39;;;;;;;5.63;3.88;;;17.00;85.70;;;;;;5041398;28;20036;-49
2021/04/22 15:03:43;;;;;;;5.03;4.03;;;17.20;86.40;;;;;;5039066;28;20040;-54
2021/04/22 15:06:50;;;;;;;4.80;3.38;;;17.20;84.50;;;;;;5036722;28;20067;-52
2021/04/22 15:09:56;;;;;;;6.40;4.50;;;17.20;84.80;;;;;;5039520;28;20106;-47
2021/04/22 15:13:00;;;;;;;6.30;3.72;;;17.10;86.00;;;;;;5038278;28;20056;-47
2021/04/22 15:16:04;;;;;;;7.88;4.28;;;17.10;86.90;;;;;;5039282;28;20056;-54
2021/04/22 15:19:09;;;;;;;6.93;4.60;;;17.20;86.80;;;;;;5040671;28;20365;-49
2021/04/22 15:22:13;;;;;;;4.25;3.70;;;17.30;87.00;;;;;;5038700;28;20056;-51
2021/04/22 15:25:17;;;;;;;5.18;4.00;;;17.50;87.00;;;;;;5046241;28;20047;-48
2021/04/22 15:28:21;;;;;;;5.45;3.72;;;17.70;87.70;;;;;;5039646;28;20400;-49
2021/04/22 15:31:29;;;;;;;6.45;3.85;;;17.90;86.60;;;;;;5037820;28;20040;-48
2021/04/22 15:34:33;;;;;;;5.75;3.67;;;17.90;88.80;;;;;;5038980;28;20032;-47
2021/04/22 15:37:39;;;;;;;8.38;4.05;;;17.90;87.40;;;;;;5036742;28;20384;-52
2021/04/22 15:40:43;;;;;;;8.85;4.53;;;18.00;87.10;;;;;;5035565;28;20032;-46
2021/04/22 15:43:47;;;;;;;5.85;3.85;;;18.30;87.60;;;;;;5034533;28;20052;-50
2021/04/22 15:46:52;;;;;;;5.70;3.10;;;18.50;87.30;;;;;;5029767;28;20040;-48
2021/04/22 15:49:56;;;;;;;4.45;3.22;;;18.40;87.20;;;;;;5030953;28;20049;-51
2021/04/22 15:53:01;;;;;;;4.45;3.20;;;18.00;86.20;;;;;;5030525;28;20040;-48
2021/04/22 15:56:05;;;;;;;4.10;3.10;;;18.00;88.10;;;;;;5031598;28;20522;-49
2021/04/22 15:59:09;;;;;;;4.85;3.28;;;17.70;86.20;;;;;;5035844;28;20048;-49
2021/04/22 16:02:15;;;;;;;6.75;4.50;;;17.50;86.20;;;;;;5039840;28;20052;-48
2021/04/22 16:05:20;;;;;;;4.22;3.15;;;17.50;88.00;;;;;;5030692;28;20060;-48